Time;durP1;ratioP1;P1;durP2;ratioP2;P2;SDS_P1;SDS_P2;PMS_P1;PMS_P2;Temp;Humidity;BMP_temperature;BMP_pressure;BME280_temperature;BME280_humidity;BME280_pressure;Samples;Min_cycle;Max_cycle;Signal;HPM_P1;HPM_P2
2023/12/23 00:05:35;;;;;;;1.95;0.40;;;7.30;99.90;;;;;;4960829;28;20043;-82
2023/12/23 00:08:00;;;;;;;0.85;0.40;;;7.30;99.90;;;;;;4974428;28;20032;-82
2023/12/23 00:10:58;;;;;;;0.30;0.30;;;7.40;99.90;;;;;;4958787;28;20034;-78
2023/12/23 00:16:59;;;;;;;0.45;0.45;;;7.30;99.90;;;;;;4957606;28;20071;-82
2023/12/23 00:19:29;;;;;;;0.68;0.43;;;7.40;99.90;;;;;;4973363;28;20020;-81
2023/12/23 00:22:40;;;;;;;0.98;0.68;;;7.40;99.90;;;;;;4975170;28;20042;-81
2023/12/23 00:25:44;;;;;;;0.20;0.20;;;7.30;99.90;;;;;;4960366;28;20038;-78
2023/12/23 00:31:36;;;;;;;0.88;0.63;;;7.30;99.90;;;;;;4960188;28;20030;-82
2023/12/23 00:34:29;;;;;;;0.75;0.75;;;7.30;99.90;;;;;;4958966;29;20019;-82
2023/12/23 00:37:57;;;;;;;2.70;0.73;;;7.30;99.90;;;;;;4960051;28;20055;-84
2023/12/23 00:42:13;;;;;;;0.30;0.30;;;7.30;99.90;;;;;;4911528;29;20032;-82
2023/12/23 00:47:12;;;;;;;2.33;1.08;;;7.30;99.90;;;;;;4957348;29;20079;-77
2023/12/23 00:49:50;;;;;;;0.52;0.22;;;7.30;99.90;;;;;;4939858;29;20119;-83
2023/12/23 00:52:16;;;;;;;0.52;0.30;;;7.30;99.90;;;;;;4959060;28;20032;-77
2023/12/23 00:58:52;;;;;;;;;;;;;;;;;;;;;
2023/12/23 01:01:57;;;;;;;2.42;0.38;;;7.30;99.90;;;;;;4909170;29;20492;-77
2023/12/23 01:04:23;;;;;;;1.05;0.40;;;7.40;99.90;;;;;;4941915;29;20052;-79
2023/12/23 01:06:50;;;;;;;4.40;0.43;;;7.40;99.90;;;;;;4940342;29;20045;-82
2023/12/23 01:09:48;;;;;;;0.20;0.20;;;7.30;99.90;;;;;;4953836;28;20044;-80
2023/12/23 01:12:21;;;;;;;0.50;0.35;;;7.30;99.90;;;;;;4943841;29;20036;-81
2023/12/23 01:15:28;;;;;;;0.70;0.30;;;7.40;99.90;;;;;;4955929;28;20041;-78
2023/12/23 01:17:56;;;;;;;2.10;0.85;;;7.30;99.90;;;;;;4924568;29;20048;-80
2023/12/23 01:24:06;;;;;;;0.90;0.20;;;7.40;99.90;;;;;;4925049;29;20020;-78
2023/12/23 01:32:37;;;;;;;0.40;0.32;;;7.30;99.90;;;;;;4921566;29;20039;-83
2023/12/23 01:35:03;;;;;;;4.05;0.52;;;7.30;99.90;;;;;;4923669;29;20020;-79
2023/12/23 01:37:28;;;;;;;3.30;0.50;;;6.50;99.90;;;;;;4923855;29;20061;-82
2023/12/23 01:47:11;;;;;;;0.52;0.40;;;7.30;99.90;;;;;;4933214;29;20029;-77
2023/12/23 01:49:31;;;;;;;0.68;0.60;;;7.30;99.90;;;;;;4923853;29;20036;-80
2023/12/23 01:55:27;;;;;;;2.20;0.47;;;7.20;99.90;;;;;;4904946;29;20070;-83
2023/12/23 02:01:43;;;;;;;2.72;0.95;;;7.20;99.90;;;;;;4917062;29;20112;-85
2023/12/23 02:04:09;;;;;;;2.80;0.43;;;7.20;99.90;;;;;;4906200;29;20028;-80
2023/12/23 02:06:34;;;;;;;1.20;0.50;;;7.20;99.90;;;;;;4923321;29;20020;-77
2023/12/23 02:09:20;;;;;;;0.60;0.55;;;7.20;99.90;;;;;;4924081;29;20043;-79
2023/12/23 02:11:51;;;;;;;1.00;0.20;;;7.20;99.90;;;;;;4936491;29;20023;-80
2023/12/23 02:14:26;;;;;;;0.35;0.10;;;7.10;99.90;;;;;;4951899;28;20079;-83
2023/12/23 02:16:53;;;;;;;0.20;0.20;;;7.10;99.90;;;;;;4961189;29;20014;-79
2023/12/23 02:19:18;;;;;;;1.52;0.45;;;6.90;99.90;;;;;;4960939;28;20363;-80
2023/12/23 02:21:44;;;;;;;2.08;0.43;;;7.00;99.90;;;;;;4969266;29;20035;-82
2023/12/23 02:24:13;;;;;;;1.15;0.20;;;7.10;99.90;;;;;;4946593;29;20029;-81
2023/12/23 02:26:55;;;;;;;0.82;0.43;;;7.10;99.90;;;;;;4947478;29;20035;-81
2023/12/23 02:32:57;;;;;;;0.20;0.15;;;7.20;99.90;;;;;;4945934;29;20058;-81
2023/12/23 02:35:27;;;;;;;0.20;0.20;;;7.20;99.90;;;;;;4957699;29;20059;-80
2023/12/23 02:37:58;;;;;;;;;;;7.10;99.90;;;;;;4965973;29;20239;-83
2023/12/23 02:40:24;;;;;;;0.45;0.20;;;7.10;99.90;;;;;;4965958;29;19902;-80
2023/12/23 02:43:13;;;;;;;0.30;0.22;;;7.10;99.90;;;;;;4967311;29;20027;-80
2023/12/23 02:49:01;;;;;;;0.75;0.40;;;7.10;99.90;;;;;;4964637;29;20086;-80
2023/12/23 02:52:12;;;;;;;0.30;0.28;;;7.10;99.90;;;;;;4963565;29;20419;-80
2023/12/23 02:54:38;;;;;;;0.77;0.30;;;7.10;99.90;;;;;;4965826;29;20046;-78
2023/12/23 02:57:07;;;;;;;3.38;0.25;;;7.10;99.90;;;;;;4946953;29;20027;-80
2023/12/23 02:59:33;;;;;;;0.55;0.22;;;7.10;99.90;;;;;;4963298;29;20026;-77
2023/12/23 03:02:56;;;;;;;3.65;0.40;;;7.20;99.90;;;;;;4963954;29;20035;-79
2023/12/23 03:05:25;;;;;;;0.28;0.20;;;7.20;99.90;;;;;;4956654;29;20046;-82
2023/12/23 03:08:27;;;;;;;1.85;0.85;;;7.10;99.90;;;;;;4975347;29;20039;-81
2023/12/23 03:15:15;;;;;;;0.10;0.10;;;7.10;99.90;;;;;;4867874;29;20105;-80
2023/12/23 03:17:40;;;;;;;1.27;0.20;;;7.10;99.90;;;;;;4859346;29;20260;-81
2023/12/23 03:20:08;;;;;;;0.35;0.10;;;7.00;99.90;;;;;;4870140;29;20102;-81
2023/12/23 03:22:34;;;;;;;0.20;0.20;;;7.00;99.90;;;;;;4918656;29;20043;-79
2023/12/23 03:25:00;;;;;;;0.17;0.15;;;7.00;99.90;;;;;;4944200;29;20042;-81
2023/12/23 03:27:26;;;;;;;1.15;0.10;;;7.00;99.90;;;;;;4951321;29;20063;-82
2023/12/23 03:29:52;;;;;;;0.10;0.10;;;7.10;99.90;;;;;;4951693;28;20039;-80
2023/12/23 03:32:17;;;;;;;0.10;0.10;;;7.10;99.90;;;;;;4945912;29;20311;-82
2023/12/23 03:34:43;;;;;;;0.47;0.10;;;7.20;99.90;;;;;;4949741;29;20034;-83
2023/12/23 03:38:03;;;;;;;0.30;0.30;;;7.20;99.90;;;;;;4955028;29;20331;-79
2023/12/23 03:40:50;;;;;;;0.10;0.10;;;7.20;99.90;;;;;;4911150;29;20327;-82
2023/12/23 03:43:16;;;;;;;1.95;0.20;;;7.30;99.90;;;;;;4947313;28;20142;-81
2023/12/23 03:45:42;;;;;;;0.32;0.13;;;7.30;99.90;;;;;;4937885;29;20048;-83
2023/12/23 03:48:08;;;;;;;0.45;0.20;;;7.30;99.90;;;;;;4928020;29;20028;-81
2023/12/23 03:50:33;;;;;;;0.30;0.30;;;7.30;99.90;;;;;;4935247;29;20035;-82
2023/12/23 03:53:03;;;;;;;0.20;0.20;;;7.30;99.90;;;;;;4927659;29;20055;-80
2023/12/23 03:55:35;;;;;;;0.15;0.15;;;7.30;99.90;;;;;;4946649;29;20339;-82
2023/12/23 03:58:02;;;;;;;0.20;0.20;;;7.30;99.90;;;;;;4947521;29;20039;-82
2023/12/23 04:00:38;;;;;;;0.85;0.10;;;7.30;99.90;;;;;;4942726;29;20048;-79
2023/12/23 04:03:04;;;;;;;0.20;0.20;;;7.30;99.90;;;;;;4938732;29;20043;-82
2023/12/23 04:05:38;;;;;;;0.20;0.20;;;7.20;99.90;;;;;;4940378;29;20039;-82
2023/12/23 04:08:04;;;;;;;0.30;0.22;;;7.20;99.90;;;;;;4939871;29;20049;-81
2023/12/23 04:10:31;;;;;;;0.13;0.13;;;7.20;99.90;;;;;;4940569;29;20028;-84
2023/12/23 04:15:43;;;;;;;0.68;0.20;;;7.10;99.90;;;;;;4965970;28;20062;-77
2023/12/23 04:21:45;;;;;;;0.50;0.38;;;7.00;99.90;;;;;;4979998;28;20054;-83
2023/12/23 04:24:12;;;;;;;1.25;1.15;;;6.90;99.90;;;;;;4962397;29;20042;-81
2023/12/23 04:37:06;;;;;;;0.85;0.28;;;7.00;99.90;;;;;;4808237;29;20030;-83
2023/12/23 04:39:57;;;;;;;0.10;0.10;;;7.00;99.90;;;;;;4878112;29;20089;-76
2023/12/23 04:42:23;;;;;;;1.85;0.15;;;7.00;99.90;;;;;;4871198;29;20062;-79
2023/12/23 04:44:49;;;;;;;0.30;0.30;;;7.00;99.90;;;;;;4938946;29;20027;-82
2023/12/23 04:47:17;;;;;;;0.10;0.10;;;7.00;99.90;;;;;;4967696;29;20042;-77
2023/12/23 04:55:38;;;;;;;0.20;0.20;;;7.10;99.90;;;;;;4961004;29;20038;-80
2023/12/23 04:58:08;;;;;;;1.02;0.20;;;7.10;99.90;;;;;;4966396;29;20035;-78
2023/12/23 05:08:17;;;;;;;0.35;0.20;;;7.10;99.90;;;;;;4904949;29;20037;-83
2023/12/23 05:10:46;;;;;;;0.50;0.22;;;7.10;99.90;;;;;;4891276;29;20036;-80
2023/12/23 05:13:15;;;;;;;0.52;0.43;;;7.10;99.90;;;;;;4905512;29;20035;-76
2023/12/23 05:40:05;;;;;;;4.55;0.20;;;7.10;99.90;;;;;;4793154;29;20093;-79
2023/12/23 05:56:45;;;;;;;1.88;0.10;;;7.10;99.90;;;;;;4798563;29;20090;-78
2023/12/23 07:27:39;;;;;;;0.22;0.22;;;7.30;99.90;;;;;;4806826;30;20037;-76
2023/12/23 07:30:19;;;;;;;0.20;0.20;;;7.30;99.90;;;;;;4821692;29;20042;-79
2023/12/23 07:33:30;;;;;;;1.85;0.30;;;7.30;99.90;;;;;;4861411;29;20039;-79
2023/12/23 07:36:37;;;;;;;0.30;0.30;;;7.30;99.90;;;;;;4841867;29;20033;-79
2023/12/23 07:39:17;;;;;;;0.13;0.13;;;7.30;99.90;;;;;;4905381;29;20058;-81
2023/12/23 07:48:59;;;;;;;0.30;0.30;;;7.30;99.90;;;;;;4875548;29;20053;-80
2023/12/23 07:52:31;;;;;;;0.52;0.45;;;7.30;99.90;;;;;;4875385;29;20027;-79
2023/12/23 07:54:57;;;;;;;0.40;0.40;;;7.30;99.90;;;;;;4867378;29;20253;-80
2023/12/23 07:57:34;;;;;;;0.70;0.60;;;7.30;99.90;;;;;;4942974;29;20110;-79
2023/12/23 08:00:00;;;;;;;0.80;0.25;;;7.30;99.90;;;;;;4951113;28;20023;-81
2023/12/23 08:02:26;;;;;;;2.55;1.35;;;7.40;99.90;;;;;;4940603;29;20031;-82
2023/12/23 08:04:52;;;;;;;1.23;0.30;;;7.40;99.90;;;;;;4954696;29;20023;-80
2023/12/23 08:07:17;;;;;;;1.20;0.30;;;7.40;99.90;;;;;;4954089;29;20078;-80
2023/12/23 08:09:43;;;;;;;0.43;0.20;;;7.40;99.90;;;;;;4931710;29;20027;-78
2023/12/23 08:12:27;;;;;;;0.35;0.22;;;7.40;99.90;;;;;;4923366;28;20074;-78
2023/12/23 08:15:43;;;;;;;;;;;;;;;;;;;;;
2023/12/23 08:19:00;;;;;;;0.60;0.60;;;7.50;99.90;;;;;;4859602;29;20051;-78
2023/12/23 08:21:19;;;;;;;1.15;0.45;;;7.50;99.90;;;;;;4919436;29;20044;-78
2023/12/23 08:23:45;;;;;;;0.65;0.65;;;7.60;99.90;;;;;;4922175;29;20027;-79
2023/12/23 08:26:10;;;;;;;0.22;0.20;;;7.60;99.90;;;;;;4901210;29;20039;-79
2023/12/23 08:28:36;;;;;;;0.10;0.10;;;7.70;99.90;;;;;;4900359;29;20031;-80
2023/12/23 08:31:03;;;;;;;0.43;0.30;;;7.70;99.90;;;;;;4927964;29;20019;-80
2023/12/23 08:33:28;;;;;;;1.00;0.20;;;7.80;99.90;;;;;;4909157;29;20098;-79
2023/12/23 08:35:56;;;;;;;0.30;0.10;;;7.90;99.90;;;;;;4927849;29;20031;-80
2023/12/23 08:38:22;;;;;;;0.57;0.30;;;7.30;99.90;;;;;;4923749;29;20498;-79
2023/12/23 08:40:48;;;;;;;1.45;0.10;;;7.90;99.90;;;;;;4900547;29;20023;-79
2023/12/23 08:43:15;;;;;;;0.17;0.17;;;7.90;99.90;;;;;;4901924;29;20038;-78
2023/12/23 08:45:41;;;;;;;1.00;0.10;;;7.90;99.90;;;;;;4900911;29;20016;-80
2023/12/23 08:48:07;;;;;;;1.40;0.22;;;8.10;99.90;;;;;;4908099;29;20061;-75
2023/12/23 08:50:32;;;;;;;0.20;0.20;;;8.10;99.90;;;;;;4902683;29;20574;-76
2023/12/23 08:52:58;;;;;;;0.03;0.03;;;8.20;99.90;;;;;;4907988;29;20035;-78
2023/12/23 08:55:24;;;;;;;0.10;0.10;;;8.10;99.90;;;;;;4915540;29;20019;-76
2023/12/23 08:57:49;;;;;;;0.10;0.10;;;8.10;99.90;;;;;;4914981;29;20033;-76
2023/12/23 09:00:15;;;;;;;1.75;0.20;;;8.20;99.90;;;;;;4911126;29;20103;-76
2023/12/23 09:02:47;;;;;;;0.00;0.00;;;8.00;99.90;;;;;;4925500;29;20240;-76
2023/12/23 09:05:13;;;;;;;0.10;0.10;;;7.90;99.90;;;;;;4926478;29;20437;-75
2023/12/23 09:07:38;;;;;;;0.20;0.20;;;7.90;99.90;;;;;;4926511;29;20046;-75
2023/12/23 09:10:05;;;;;;;0.75;0.30;;;7.90;99.90;;;;;;4926504;29;20034;-76
2023/12/23 09:12:39;;;;;;;2.40;0.20;;;7.90;99.90;;;;;;4926793;29;20055;-76
2023/12/23 09:15:05;;;;;;;1.95;0.10;;;7.90;99.90;;;;;;4910522;29;20038;-77
2023/12/23 09:17:31;;;;;;;0.10;0.10;;;8.00;99.90;;;;;;4926400;29;20255;-77
2023/12/23 09:19:57;;;;;;;0.10;0.10;;;8.00;99.90;;;;;;4926466;29;20035;-76
2023/12/23 09:22:22;;;;;;;2.08;0.30;;;7.90;99.90;;;;;;4909338;29;20019;-76
2023/12/23 09:25:09;;;;;;;0.20;0.10;;;7.80;99.90;;;;;;4920597;28;21550;-75
2023/12/23 09:27:34;;;;;;;0.10;0.10;;;7.70;99.90;;;;;;4930742;29;20058;-77
2023/12/23 09:30:16;;;;;;;0.03;0.03;;;7.80;99.90;;;;;;4927906;29;20054;-76
2023/12/23 09:32:42;;;;;;;0.20;0.15;;;7.80;99.90;;;;;;4924569;29;20342;-76
2023/12/23 09:35:08;;;;;;;0.10;0.10;;;7.80;99.90;;;;;;4931918;29;20062;-75
2023/12/23 09:37:34;;;;;;;0.15;0.15;;;7.90;99.90;;;;;;4929550;29;20211;-77
2023/12/23 09:40:01;;;;;;;0.13;0.13;;;7.90;99.90;;;;;;4910564;29;20019;-77
2023/12/23 09:42:28;;;;;;;0.68;0.17;;;8.00;99.90;;;;;;4931961;29;20099;-76
2023/12/23 09:45:12;;;;;;;0.10;0.10;;;8.00;99.90;;;;;;4927858;29;20022;-76
2023/12/23 09:47:44;;;;;;;0.10;0.10;;;8.00;99.90;;;;;;4908968;29;20034;-75
2023/12/23 09:50:10;;;;;;;0.10;0.10;;;8.00;99.90;;;;;;4927751;29;20019;-76
2023/12/23 09:52:36;;;;;;;0.10;0.10;;;8.00;99.90;;;;;;4927851;29;20067;-78
2023/12/23 09:55:05;;;;;;;0.32;0.20;;;8.00;99.90;;;;;;4912512;29;20328;-77
2023/12/23 09:57:32;;;;;;;0.38;0.20;;;8.10;99.90;;;;;;4930251;29;20027;-77
2023/12/23 09:59:58;;;;;;;0.30;0.30;;;8.10;99.90;;;;;;4928595;29;20050;-75
2023/12/23 10:02:24;;;;;;;0.30;0.20;;;8.10;99.90;;;;;;4930484;29;20042;-77
2023/12/23 10:04:49;;;;;;;0.10;0.10;;;8.10;99.90;;;;;;4912008;29;20207;-78
2023/12/23 10:07:47;;;;;;;0.52;0.20;;;8.20;99.90;;;;;;4928924;29;20095;-79
2023/12/23 10:10:13;;;;;;;0.10;0.10;;;8.10;99.90;;;;;;4920219;29;20211;-78
2023/12/23 10:12:39;;;;;;;0.10;0.10;;;8.10;99.90;;;;;;4928998;29;20086;-77
2023/12/23 10:15:49;;;;;;;0.03;0.03;;;8.20;99.90;;;;;;4912179;29;20050;-78
2023/12/23 10:18:14;;;;;;;0.10;0.10;;;8.20;99.90;;;;;;4918648;29;20058;-76
2023/12/23 10:20:42;;;;;;;0.10;0.10;;;8.10;99.90;;;;;;4929169;29;20015;-77
2023/12/23 10:23:09;;;;;;;0.85;0.20;;;8.10;99.90;;;;;;4929728;29;20366;-78
2023/12/23 10:25:38;;;;;;;0.32;0.08;;;8.10;99.90;;;;;;4954114;29;20023;-77
2023/12/23 10:28:06;;;;;;;;;;;8.10;99.90;;;;;;4950880;29;20212;-77
2023/12/23 10:30:34;;;;;;;0.10;0.10;;;8.20;99.90;;;;;;4927379;29;19910;-77
2023/12/23 10:33:07;;;;;;;0.10;0.10;;;8.30;99.90;;;;;;4929047;29;20046;-78
2023/12/23 10:35:43;;;;;;;0.10;0.10;;;8.40;99.90;;;;;;4955468;28;20023;-79
2023/12/23 10:38:13;;;;;;;0.00;0.00;;;8.40;99.90;;;;;;4942065;29;20074;-78
2023/12/23 10:40:40;;;;;;;0.20;0.20;;;8.50;99.90;;;;;;4933008;29;20094;-76
2023/12/23 10:43:08;;;;;;;0.00;0.00;;;8.60;99.90;;;;;;4948950;29;20023;-77
2023/12/23 10:45:35;;;;;;;0.05;0.05;;;8.70;99.90;;;;;;4963906;29;20054;-78
2023/12/23 10:48:02;;;;;;;1.55;0.03;;;8.90;99.90;;;;;;4958098;29;20094;-78
2023/12/23 10:50:29;;;;;;;0.10;0.10;;;8.90;99.90;;;;;;4937758;29;20022;-78
2023/12/23 10:52:56;;;;;;;0.10;0.10;;;8.90;99.90;;;;;;4931021;28;20027;-76
2023/12/23 10:55:24;;;;;;;0.15;0.15;;;8.80;99.90;;;;;;4929458;29;20026;-77
2023/12/23 10:57:53;;;;;;;0.75;0.10;;;8.70;99.90;;;;;;4909220;29;20110;-77
2023/12/23 11:00:19;;;;;;;0.13;0.13;;;8.70;99.90;;;;;;4928252;29;20022;-78
2023/12/23 11:02:48;;;;;;;0.10;0.10;;;8.50;99.90;;;;;;4910408;29;20023;-79
2023/12/23 11:05:16;;;;;;;0.68;0.20;;;8.50;99.90;;;;;;4954691;29;20342;-79
2023/12/23 11:07:46;;;;;;;0.60;0.13;;;8.50;99.90;;;;;;4945434;29;20415;-77
2023/12/23 11:10:13;;;;;;;0.10;0.10;;;8.50;99.90;;;;;;4935761;29;20035;-78
2023/12/23 11:12:39;;;;;;;0.45;0.10;;;8.60;99.90;;;;;;4925796;29;20046;-78
2023/12/23 11:15:08;;;;;;;1.90;0.10;;;8.90;99.90;;;;;;4927975;29;20015;-78
2023/12/23 11:17:40;;;;;;;0.77;0.17;;;9.10;99.90;;;;;;4923659;28;20316;-78
2023/12/23 11:20:07;;;;;;;0.10;0.10;;;8.40;99.90;;;;;;4911978;29;20022;-78
2023/12/23 11:22:40;;;;;;;0.22;0.22;;;8.90;99.90;;;;;;4926800;29;20105;-78
2023/12/23 11:25:35;;;;;;;0.70;0.30;;;8.70;99.90;;;;;;4928566;29;20011;-78
2023/12/23 11:28:12;;;;;;;0.10;0.10;;;8.60;99.90;;;;;;4903371;29;20320;-78
2023/12/23 11:30:59;;;;;;;0.30;0.13;;;8.70;99.90;;;;;;4931771;29;20035;-78
2023/12/23 11:33:31;;;;;;;0.30;0.30;;;8.80;99.90;;;;;;4955829;29;20034;-78
2023/12/23 11:35:58;;;;;;;0.68;0.10;;;8.80;99.90;;;;;;4928332;29;20374;-78
2023/12/23 11:38:46;;;;;;;0.30;0.30;;;8.90;99.90;;;;;;4909533;29;20054;-79
2023/12/23 11:41:13;;;;;;;0.65;0.65;;;9.10;99.90;;;;;;4927048;29;20023;-77
2023/12/23 11:43:42;;;;;;;0.10;0.10;;;9.10;99.90;;;;;;4910974;29;20139;-77
2023/12/23 11:46:08;;;;;;;2.00;0.35;;;9.10;99.90;;;;;;4928042;28;20033;-78
2023/12/23 11:48:33;;;;;;;1.10;0.98;;;8.80;99.90;;;;;;4927766;29;20047;-78
2023/12/23 11:50:59;;;;;;;1.98;1.38;;;8.80;99.90;;;;;;4925482;29;20570;-77
2023/12/23 11:53:25;;;;;;;4.57;2.05;;;8.80;99.90;;;;;;4923978;29;20034;-77
2023/12/23 11:55:51;;;;;;;1.00;0.60;;;8.20;99.90;;;;;;4927393;29;21046;-77
2023/12/23 11:58:17;;;;;;;2.72;1.30;;;8.70;99.90;;;;;;4911112;29;20027;-77
2023/12/23 12:00:42;;;;;;;2.10;0.70;;;8.50;99.90;;;;;;4927732;29;20331;-77
2023/12/23 12:03:10;;;;;;;2.85;1.30;;;8.60;99.90;;;;;;4925699;29;20275;-77
2023/12/23 12:05:36;;;;;;;1.80;0.52;;;8.60;99.90;;;;;;4927827;29;20021;-77
2023/12/23 12:08:02;;;;;;;0.60;0.20;;;8.50;99.90;;;;;;4919273;29;20054;-76
2023/12/23 12:10:28;;;;;;;0.10;0.10;;;8.50;99.90;;;;;;4927647;29;20027;-76
2023/12/23 12:12:54;;;;;;;2.05;0.15;;;8.60;99.90;;;;;;4924519;29;20318;-76
2023/12/23 12:15:21;;;;;;;0.38;0.20;;;8.60;99.90;;;;;;4912808;29;20098;-76
2023/12/23 12:17:46;;;;;;;0.10;0.10;;;8.60;99.90;;;;;;4915155;29;20243;-76
2023/12/23 12:20:12;;;;;;;0.10;0.10;;;8.70;99.90;;;;;;4931248;29;20027;-76
2023/12/23 12:22:42;;;;;;;0.10;0.10;;;8.80;99.90;;;;;;4943475;29;20030;-78
2023/12/23 12:25:08;;;;;;;0.15;0.10;;;8.70;99.90;;;;;;4961018;29;20043;-78
2023/12/23 12:27:34;;;;;;;0.08;0.08;;;8.70;99.90;;;;;;4961195;29;20086;-78
2023/12/23 12:29:59;;;;;;;0.10;0.10;;;8.80;99.90;;;;;;4951399;29;20030;-77
2023/12/23 12:32:25;;;;;;;0.10;0.10;;;8.80;99.90;;;;;;4933109;29;20027;-77
2023/12/23 12:35:02;;;;;;;0.00;0.00;;;9.00;99.90;;;;;;4951019;29;20041;-77
2023/12/23 12:37:28;;;;;;;0.20;0.13;;;9.10;99.90;;;;;;4942474;29;20032;-76
2023/12/23 12:39:54;;;;;;;0.10;0.10;;;9.20;99.90;;;;;;4947837;29;20118;-77
2023/12/23 12:42:23;;;;;;;0.10;0.10;;;9.30;99.90;;;;;;4932718;29;20396;-77
2023/12/23 12:44:48;;;;;;;0.10;0.10;;;9.30;99.90;;;;;;4948207;29;20031;-77
2023/12/23 12:47:14;;;;;;;0.25;0.10;;;9.20;99.90;;;;;;4946182;29;20522;-76
2023/12/23 12:49:46;;;;;;;0.00;0.00;;;9.20;99.90;;;;;;4949454;29;20023;-74
2023/12/23 12:52:12;;;;;;;0.10;0.10;;;9.10;99.90;;;;;;4922688;29;20051;-74
2023/12/23 12:54:38;;;;;;;0.17;0.10;;;9.00;99.90;;;;;;4929015;29;20024;-76
2023/12/23 12:57:04;;;;;;;0.00;0.00;;;9.00;99.90;;;;;;4930819;29;20036;-76
2023/12/23 12:59:30;;;;;;;0.10;0.10;;;8.80;99.90;;;;;;4934525;29;20115;-76
2023/12/23 13:01:56;;;;;;;0.65;0.10;;;8.80;99.90;;;;;;4936032;29;20099;-76
2023/12/23 13:04:22;;;;;;;0.20;0.20;;;8.70;99.90;;;;;;4936134;29;20024;-76
2023/12/23 13:06:47;;;;;;;0.43;0.35;;;8.70;99.90;;;;;;4935195;29;20076;-76
2023/12/23 13:09:13;;;;;;;0.68;0.10;;;8.70;99.90;;;;;;4930924;29;20448;-76
2023/12/23 13:11:39;;;;;;;0.00;0.00;;;8.70;99.90;;;;;;4936163;29;20031;-76
2023/12/23 13:14:05;;;;;;;0.10;0.10;;;8.70;99.90;;;;;;4936478;29;20128;-75
2023/12/23 13:16:30;;;;;;;0.20;0.10;;;8.50;99.90;;;;;;4936400;29;20038;-77
2023/12/23 13:18:56;;;;;;;0.10;0.10;;;8.40;99.90;;;;;;4919001;29;20075;-78
2023/12/23 13:21:21;;;;;;;0.93;0.10;;;8.50;99.90;;;;;;4936321;29;20103;-76
2023/12/23 13:23:48;;;;;;;0.25;0.10;;;8.60;99.90;;;;;;4947442;29;20035;-84
2023/12/23 13:26:16;;;;;;;0.98;0.10;;;8.60;99.90;;;;;;4951301;28;20054;-78
2023/12/23 13:28:42;;;;;;;0.08;0.08;;;8.60;99.90;;;;;;4956406;28;20046;-79
2023/12/23 13:31:08;;;;;;;0.20;0.20;;;8.50;99.90;;;;;;4957879;29;20243;-79
2023/12/23 13:33:33;;;;;;;0.13;0.13;;;8.50;99.90;;;;;;4942683;29;20028;-77
2023/12/23 13:35:59;;;;;;;0.25;0.10;;;8.40;99.90;;;;;;4960334;29;20023;-78
2023/12/23 13:38:25;;;;;;;1.13;1.00;;;8.20;99.90;;;;;;4937537;29;20024;-78
2023/12/23 13:40:54;;;;;;;1.10;0.70;;;8.10;99.90;;;;;;4954216;29;20036;-79
2023/12/23 13:47:03;;;;;;;0.22;0.10;;;8.10;99.90;;;;;;4856724;29;20049;-76
2023/12/23 13:49:29;;;;;;;0.10;0.10;;;8.20;99.90;;;;;;4856286;29;20048;-77
2023/12/23 13:51:55;;;;;;;0.10;0.10;;;8.20;99.90;;;;;;4914825;29;20039;-78
2023/12/23 13:54:21;;;;;;;0.10;0.10;;;8.20;99.90;;;;;;4935878;29;20059;-77
2023/12/23 13:56:50;;;;;;;0.20;0.20;;;8.20;99.90;;;;;;4953436;29;20361;-76
2023/12/23 13:59:15;;;;;;;0.10;0.10;;;8.10;99.90;;;;;;4956829;29;20029;-78
2023/12/23 14:01:44;;;;;;;0.20;0.20;;;8.20;99.90;;;;;;4958166;29;20689;-76
2023/12/23 14:04:10;;;;;;;0.10;0.10;;;8.30;99.90;;;;;;4957411;29;20117;-75
2023/12/23 14:06:35;;;;;;;0.15;0.15;;;8.40;99.90;;;;;;4954416;29;20669;-76
2023/12/23 14:09:01;;;;;;;0.40;0.40;;;8.60;99.90;;;;;;4958780;28;20483;-78
2023/12/23 14:11:27;;;;;;;0.17;0.13;;;8.70;99.90;;;;;;4935697;29;20054;-77
2023/12/23 14:13:52;;;;;;;0.32;0.20;;;8.80;99.90;;;;;;4956741;29;20102;-78
2023/12/23 14:16:18;;;;;;;0.10;0.10;;;8.60;99.90;;;;;;4954057;29;20183;-79
2023/12/23 14:18:43;;;;;;;0.25;0.10;;;8.50;99.90;;;;;;4936738;29;20500;-76
2023/12/23 14:21:09;;;;;;;0.57;0.57;;;8.50;99.90;;;;;;4952621;29;20396;-76
2023/12/23 14:23:35;;;;;;;0.30;0.30;;;8.50;99.90;;;;;;4952549;29;20473;-76
2023/12/23 14:26:00;;;;;;;1.02;0.77;;;8.50;99.90;;;;;;4952291;29;20110;-77
2023/12/23 14:28:26;;;;;;;4.47;1.52;;;8.50;99.90;;;;;;4952319;29;20389;-77
2023/12/23 14:30:52;;;;;;;2.15;1.02;;;8.30;99.90;;;;;;4935303;29;20034;-77
2023/12/23 14:33:17;;;;;;;2.17;1.27;;;8.30;99.90;;;;;;4952592;29;20031;-78
2023/12/23 14:35:43;;;;;;;1.30;1.20;;;8.20;99.90;;;;;;4952734;29;20023;-78
2023/12/23 14:44:32;;;;;;;0.55;0.40;;;8.10;99.90;;;;;;4951551;29;20689;-77
2023/12/23 14:46:57;;;;;;;4.95;1.65;;;8.10;99.90;;;;;;4935590;29;20051;-77
2023/12/23 14:49:24;;;;;;;1.20;0.20;;;8.10;99.90;;;;;;4953657;29;20034;-77
2023/12/23 14:51:50;;;;;;;0.20;0.20;;;8.00;99.90;;;;;;4953809;29;20027;-78
2023/12/23 14:54:28;;;;;;;2.05;0.50;;;8.00;99.90;;;;;;4935341;29;20484;-77
2023/12/23 14:59:43;;;;;;;1.55;0.80;;;7.80;99.90;;;;;;4912830;29;20509;-79
2023/12/23 15:02:09;;;;;;;1.60;1.02;;;7.80;99.90;;;;;;4936430;29;20130;-77
2023/12/23 15:04:37;;;;;;;0.85;0.50;;;7.80;99.90;;;;;;4936515;29;20024;-77
2023/12/23 15:07:03;;;;;;;0.40;0.40;;;8.00;99.90;;;;;;4935943;29;20032;-76
2023/12/23 15:09:30;;;;;;;0.60;0.52;;;7.70;99.90;;;;;;4952101;29;20531;-76
2023/12/23 15:11:56;;;;;;;0.68;0.60;;;7.70;99.90;;;;;;4935752;29;20552;-76
2023/12/23 15:14:21;;;;;;;6.63;2.35;;;7.70;99.90;;;;;;4936059;29;20023;-77
2023/12/23 15:16:47;;;;;;;0.88;0.40;;;7.70;99.90;;;;;;4935991;29;20118;-77
2023/12/23 15:19:13;;;;;;;3.55;1.92;;;7.70;99.90;;;;;;4935775;29;20484;-77
2023/12/23 15:21:38;;;;;;;0.45;0.30;;;7.70;99.90;;;;;;4952878;28;20035;-78
2023/12/23 15:24:04;;;;;;;0.22;0.22;;;7.60;99.90;;;;;;4952856;29;20023;-78
2023/12/23 15:26:30;;;;;;;3.10;1.63;;;7.50;99.90;;;;;;4952786;29;20031;-77
2023/12/23 15:28:55;;;;;;;2.63;0.88;;;7.50;99.90;;;;;;4953123;29;20031;-77
2023/12/23 15:31:21;;;;;;;2.08;0.65;;;7.50;99.90;;;;;;4952955;29;20428;-77
2023/12/23 15:33:47;;;;;;;0.35;0.35;;;7.50;99.90;;;;;;4952631;29;20425;-77
2023/12/23 15:36:14;;;;;;;2.92;0.40;;;7.40;99.90;;;;;;4952922;29;20050;-78
2023/12/23 15:38:40;;;;;;;0.40;0.40;;;7.40;99.90;;;;;;4935351;29;20038;-77
2023/12/23 15:41:05;;;;;;;1.45;0.52;;;7.40;99.90;;;;;;4952546;29;20035;-76
2023/12/23 15:43:31;;;;;;;0.40;0.38;;;7.30;99.90;;;;;;4952824;29;20030;-78
2023/12/23 15:45:57;;;;;;;1.25;0.70;;;7.30;99.90;;;;;;4935516;29;20571;-78
2023/12/23 15:48:22;;;;;;;0.55;0.50;;;7.30;99.90;;;;;;4952659;29;20035;-77
2023/12/23 15:50:51;;;;;;;2.13;0.85;;;7.30;99.90;;;;;;4944875;29;20019;-78
2023/12/23 15:53:26;;;;;;;0.20;0.20;;;7.30;99.90;;;;;;4946725;29;20019;-79
2023/12/23 15:55:52;;;;;;;0.73;0.30;;;7.30;99.90;;;;;;4963195;29;20219;-77
2023/12/23 15:58:17;;;;;;;1.40;0.38;;;7.30;99.90;;;;;;4963034;29;20323;-77
2023/12/23 16:00:43;;;;;;;0.50;0.50;;;7.20;99.90;;;;;;4963279;29;20031;-77
2023/12/23 16:03:10;;;;;;;2.28;0.43;;;7.20;99.90;;;;;;4963083;29;20278;-78
2023/12/23 16:05:36;;;;;;;1.35;0.30;;;7.20;99.90;;;;;;4963364;29;20035;-79
2023/12/23 16:08:20;;;;;;;2.55;1.30;;;7.10;99.90;;;;;;4946346;29;20038;-79
2023/12/23 16:10:46;;;;;;;1.67;1.17;;;7.10;99.90;;;;;;4962772;29;20057;-76
2023/12/23 16:13:18;;;;;;;3.50;1.85;;;7.10;99.90;;;;;;4962635;29;20031;-77
2023/12/23 16:16:59;;;;;;;;;;;;;;;;;;;;;
2023/12/23 16:19:36;;;;;;;0.30;0.30;;;7.10;99.90;;;;;;4865625;29;20117;-79
2023/12/23 16:22:25;;;;;;;0.55;0.55;;;7.10;99.90;;;;;;4867007;29;20029;-78
2023/12/23 16:25:11;;;;;;;;;;;7.20;99.90;;;;;;4958537;29;20040;-81
2023/12/23 16:27:42;;;;;;;8.27;0.60;;;7.10;99.90;;;;;;4959625;29;19915;-81
2023/12/23 16:30:08;;;;;;;0.30;0.30;;;7.10;99.90;;;;;;4959438;29;20075;-84
2023/12/23 16:32:44;;;;;;;0.30;0.30;;;7.00;99.90;;;;;;4956915;29;20028;-79
2023/12/23 16:35:11;;;;;;;0.38;0.38;;;7.00;99.90;;;;;;4959330;29;20079;-77
2023/12/23 16:37:37;;;;;;;0.15;0.13;;;7.00;99.90;;;;;;4957298;29;20035;-78
2023/12/23 16:40:13;;;;;;;1.02;0.20;;;7.00;99.90;;;;;;4957651;29;20075;-80
2023/12/23 16:42:43;;;;;;;0.30;0.30;;;7.00;99.90;;;;;;4957100;29;20023;-86
2023/12/23 16:45:14;;;;;;;0.20;0.20;;;7.00;99.90;;;;;;4953353;29;20040;-79
2023/12/23 16:47:55;;;;;;;0.35;0.17;;;6.90;99.90;;;;;;4949062;29;20032;-80
2023/12/23 16:50:21;;;;;;;1.20;0.30;;;7.50;99.90;;;;;;4953871;29;20042;-78
2023/12/23 16:52:46;;;;;;;0.20;0.20;;;7.00;99.90;;;;;;4947976;29;20067;-82
2023/12/23 16:55:16;;;;;;;0.22;0.22;;;6.90;99.90;;;;;;4956547;29;20019;-77
2023/12/23 16:57:42;;;;;;;;;;;7.10;99.90;;;;;;4958226;29;20040;-76
2023/12/23 17:00:17;;;;;;;0.20;0.20;;;7.10;99.90;;;;;;4933541;29;19903;-76
2023/12/23 17:02:43;;;;;;;0.20;0.20;;;7.10;99.90;;;;;;4940689;29;20015;-78
2023/12/23 17:05:09;;;;;;;0.20;0.20;;;7.10;99.90;;;;;;4953549;29;20080;-77
2023/12/23 17:07:34;;;;;;;0.47;0.30;;;7.00;99.90;;;;;;4952337;29;20047;-78
2023/12/23 17:10:00;;;;;;;1.45;0.28;;;7.10;99.90;;;;;;4946095;29;20031;-83
2023/12/23 17:12:26;;;;;;;0.63;0.10;;;7.10;99.90;;;;;;4947165;29;20038;-83